Time;durP1;ratioP1;P1;durP2;ratioP2;P2;SDS_P1;SDS_P2;PMS_P1;PMS_P2;Temp;Humidity;BMP_temperature;BMP_pressure;BME280_temperature;BME280_humidity;BME280_pressure;Samples;Min_cycle;Max_cycle;Signal;HPM_P1;HPM_P2
2022/09/03 00:00:04;;;;;;;0.00;0.00;;;;;;;;;;5021124;28;20088;-95
2022/09/03 00:02:38;;;;;;;0.00;0.00;;;;;;;;;;5017745;28;20133;-94
2022/09/03 00:05:10;;;;;;;0.00;0.00;;;;;;;;;;5016567;28;20042;-94
2022/09/03 00:07:43;;;;;;;0.00;0.00;;;;;;;;;;5015809;28;20391;-93
2022/09/03 00:10:13;;;;;;;0.00;0.00;;;;;;;;;;5017038;28;20041;-94
2022/09/03 00:12:41;;;;;;;0.00;0.00;;;;;;;;;;5016683;28;20112;-92
2022/09/03 00:15:26;;;;;;;0.00;0.00;;;;;;;;;;5018354;28;20072;-95
2022/09/03 00:17:58;;;;;;;0.00;0.00;;;;;;;;;;5018186;28;20066;-93
2022/09/03 00:20:28;;;;;;;0.00;0.00;;;;;;;;;;5017233;28;20056;-92
2022/09/03 00:22:56;;;;;;;0.00;0.00;;;;;;;;;;5017553;28;20498;-91
2022/09/03 00:25:25;;;;;;;0.00;0.00;;;;;;;;;;5017271;28;20042;-92
2022/09/03 00:27:53;;;;;;;0.00;0.00;;;;;;;;;;5018262;28;20374;-94
2022/09/03 00:30:21;;;;;;;0.00;0.00;;;;;;;;;;5018262;28;20076;-93
2022/09/03 00:32:47;;;;;;;0.00;0.00;;;;;;;;;;5019607;28;20045;-93
2022/09/03 00:35:36;;;;;;;0.00;0.00;;;;;;;;;;5019835;28;20577;-95
2022/09/03 00:38:02;;;;;;;0.00;0.00;;;;;;;;;;5012527;28;20128;-86
2022/09/03 00:40:36;;;;;;;0.00;0.00;;;;;;;;;;5015295;28;20446;-87
2022/09/03 00:43:19;;;;;;;0.00;0.00;;;;;;;;;;5013622;28;20056;-87
2022/09/03 00:45:45;;;;;;;0.00;0.00;;;;;;;;;;5015191;28;20041;-89
2022/09/03 00:48:10;;;;;;;0.00;0.00;;;;;;;;;;5013838;28;20042;-89
2022/09/03 00:50:59;;;;;;;0.00;0.00;;;;;;;;;;5013582;28;20048;-89
2022/09/03 00:53:25;;;;;;;0.00;0.00;;;;;;;;;;5014876;28;20128;-90
2022/09/03 00:56:02;;;;;;;0.00;0.00;;;;;;;;;;5015139;28;20034;-89
2022/09/03 00:58:28;;;;;;;0.00;0.00;;;;;;;;;;5013653;28;20078;-88
2022/09/03 01:00:55;;;;;;;0.00;0.00;;;;;;;;;;5015059;28;20072;-89
2022/09/03 01:03:22;;;;;;;0.00;0.00;;;;;;;;;;5034478;28;20057;-92
2022/09/03 01:05:58;;;;;;;0.00;0.00;;;;;;;;;;5410369;23;20061;-94
2022/09/03 01:08:34;;;;;;;0.00;0.00;;;;;;;;;;5021430;28;20042;-95
2022/09/03 01:11:01;;;;;;;0.00;0.00;;;;;;;;;;5019043;28;20049;-92
2022/09/03 01:13:35;;;;;;;0.00;0.00;;;;;;;;;;5024912;28;20042;-92
2022/09/03 01:16:29;;;;;;;0.00;0.00;;;;;;;;;;5024216;28;20037;-92
2022/09/03 01:19:10;;;;;;;0.00;0.00;;;;;;;;;;5024884;28;20038;-94
2022/09/03 01:21:51;;;;;;;0.00;0.00;;;;;;;;;;5025755;28;20038;-93
2022/09/03 01:24:39;;;;;;;0.00;0.00;;;;;;;;;;5025524;28;20038;-95
2022/09/03 01:27:14;;;;;;;0.00;0.00;;;;;;;;;;5022107;28;20401;-93
2022/09/03 01:29:55;;;;;;;0.00;0.00;;;;;;;;;;5016370;28;20038;-92
2022/09/03 01:32:36;;;;;;;0.00;0.00;;;;;;;;;;5017498;28;20409;-92
2022/09/03 01:35:16;;;;;;;0.00;0.00;;;;;;;;;;5018822;28;20056;-93
2022/09/03 01:38:01;;;;;;;0.00;0.00;;;;;;;;;;5020782;28;20052;-94
2022/09/03 01:40:27;;;;;;;0.00;0.00;;;;;;;;;;5021688;28;20042;-92
2022/09/03 01:42:53;;;;;;;0.00;0.00;;;;;;;;;;5019852;28;20042;-94
2022/09/03 01:45:25;;;;;;;0.00;0.00;;;;;;;;;;5015981;28;20107;-94
2022/09/03 01:47:53;;;;;;;0.00;0.00;;;;;;;;;;5015328;28;20042;-91
2022/09/03 01:50:26;;;;;;;0.00;0.00;;;;;;;;;;5012859;28;20091;-91
2022/09/03 01:52:55;;;;;;;0.00;0.00;;;;;;;;;;5014206;28;20095;-90
2022/09/03 01:55:24;;;;;;;0.00;0.00;;;;;;;;;;5012391;28;20056;-90
2022/09/03 01:57:56;;;;;;;0.00;0.00;;;;;;;;;;5012405;28;20045;-88
2022/09/03 02:00:23;;;;;;;0.00;0.00;;;;;;;;;;5012650;28;20042;-87
2022/09/03 02:02:50;;;;;;;0.00;0.00;;;;;;;;;;5013944;28;20046;-90
2022/09/03 02:05:22;;;;;;;0.00;0.00;;;;;;;;;;5014046;28;20173;-88
2022/09/03 02:07:51;;;;;;;0.00;0.00;;;;;;;;;;5014025;28;20084;-90
2022/09/03 02:10:36;;;;;;;0.00;0.00;;;;;;;;;;5013306;28;20494;-88
2022/09/03 02:13:07;;;;;;;0.00;0.00;;;;;;;;;;5013858;28;20093;-89
2022/09/03 02:15:35;;;;;;;0.00;0.00;;;;;;;;;;5013682;28;20046;-89
2022/09/03 02:18:03;;;;;;;0.00;0.00;;;;;;;;;;5013707;28;20038;-87
2022/09/03 02:20:29;;;;;;;0.00;0.00;;;;;;;;;;5013512;28;20064;-88
2022/09/03 02:22:56;;;;;;;0.00;0.00;;;;;;;;;;5012845;28;20052;-89
2022/09/03 02:25:24;;;;;;;0.00;0.00;;;;;;;;;;5013277;28;20034;-88
2022/09/03 02:27:50;;;;;;;0.00;0.00;;;;;;;;;;5011985;28;20100;-90
2022/09/03 02:30:17;;;;;;;0.00;0.00;;;;;;;;;;5013328;28;20092;-89
2022/09/03 02:38:50;;;;;;;0.00;0.00;;;;;;;;;;5126703;23;20050;-88
2022/09/03 02:41:16;;;;;;;0.00;0.00;;;;;;;;;;5006975;28;20060;-90
2022/09/03 02:43:54;;;;;;;0.00;0.00;;;;;;;;;;5012250;28;20045;-89
2022/09/03 02:46:21;;;;;;;0.00;0.00;;;;;;;;;;5011877;28;20453;-93
2022/09/03 02:48:47;;;;;;;0.00;0.00;;;;;;;;;;5013655;28;20048;-91
2022/09/03 02:51:13;;;;;;;0.00;0.00;;;;;;;;;;5011718;28;20066;-89
2022/09/03 02:53:39;;;;;;;0.00;0.00;;;;;;;;;;5030391;28;20050;-86
2022/09/03 02:56:05;;;;;;;0.00;0.00;;;;;;;;;;5302235;23;20058;-91
2022/09/03 02:58:31;;;;;;;0.00;0.00;;;;;;;;;;5013393;28;20045;-90
2022/09/03 03:00:57;;;;;;;0.00;0.00;;;;;;;;;;5015330;28;20524;-93
2022/09/03 03:03:23;;;;;;;0.00;0.00;;;;;;;;;;5020820;28;20042;-95
2022/09/03 03:05:51;;;;;;;0.00;0.00;;;;;;;;;;5018906;28;20454;-92
2022/09/03 03:11:29;;;;;;;0.00;0.00;;;;;;;;;;5098179;23;20049;-91
2022/09/03 03:13:55;;;;;;;0.00;0.00;;;;;;;;;;5017224;28;20050;-89
2022/09/03 03:16:21;;;;;;;0.00;0.00;;;;;;;;;;5016980;28;20037;-92
2022/09/03 03:18:47;;;;;;;0.00;0.00;;;;;;;;;;5017258;28;20388;-86
2022/09/03 03:21:17;;;;;;;0.00;0.00;;;;;;;;;;5019420;28;20110;-84
2022/09/03 03:23:43;;;;;;;0.00;0.00;;;;;;;;;;5102733;23;20144;-90
2022/09/03 03:26:14;;;;;;;0.00;0.00;;;;;;;;;;5016839;28;20374;-87
2022/09/03 03:28:41;;;;;;;0.00;0.00;;;;;;;;;;5015926;28;20073;-91
2022/09/03 03:31:08;;;;;;;0.00;0.00;;;;;;;;;;5015442;28;20042;-90
2022/09/03 03:33:34;;;;;;;0.00;0.00;;;;;;;;;;4996848;28;20043;-90
2022/09/03 03:36:05;;;;;;;0.00;0.00;;;;;;;;;;4996438;28;20486;-92
2022/09/03 03:38:32;;;;;;;0.00;0.00;;;;;;;;;;5405421;23;20049;-86
2022/09/03 03:40:58;;;;;;;0.00;0.00;;;;;;;;;;5035439;28;20077;-91
2022/09/03 03:43:23;;;;;;;0.00;0.00;;;;;;;;;;5044454;28;20049;-92
2022/09/03 03:45:56;;;;;;;0.00;0.00;;;;;;;;;;5034639;28;20400;-88
2022/09/03 03:48:22;;;;;;;0.00;0.00;;;;;;;;;;5036163;28;20044;-89
2022/09/03 03:50:48;;;;;;;0.00;0.00;;;;;;;;;;5034594;28;20037;-88
2022/09/03 03:53:14;;;;;;;0.00;0.00;;;;;;;;;;5036838;28;20097;-93
2022/09/03 03:55:41;;;;;;;0.00;0.00;;;;;;;;;;5030177;28;20046;-91
2022/09/03 03:58:07;;;;;;;0.00;0.00;;;;;;;;;;5044344;28;20072;-89
2022/09/03 04:00:36;;;;;;;0.00;0.00;;;;;;;;;;5178584;23;20420;-87
2022/09/03 04:03:02;;;;;;;0.00;0.00;;;;;;;;;;5016038;28;20103;-88
2022/09/03 04:05:28;;;;;;;0.00;0.00;;;;;;;;;;5015825;28;20038;-88
2022/09/03 04:07:54;;;;;;;0.00;0.00;;;;;;;;;;5014637;28;20052;-87
2022/09/03 04:10:21;;;;;;;0.00;0.00;;;;;;;;;;5015601;28;20049;-86
2022/09/03 04:12:46;;;;;;;0.00;0.00;;;;;;;;;;5014250;28;20097;-86
2022/09/03 04:15:12;;;;;;;0.00;0.00;;;;;;;;;;5014129;28;20049;-88
2022/09/03 04:17:38;;;;;;;0.00;0.00;;;;;;;;;;5016554;28;20049;-94
2022/09/03 04:20:05;;;;;;;0.00;0.00;;;;;;;;;;5026572;28;20172;-89
2022/09/03 04:22:34;;;;;;;0.00;0.00;;;;;;;;;;5102896;23;20046;-93
2022/09/03 04:25:00;;;;;;;0.00;0.00;;;;;;;;;;5015799;28;20111;-90
2022/09/03 04:27:26;;;;;;;0.00;0.00;;;;;;;;;;5019286;28;20042;-94
2022/09/03 04:29:52;;;;;;;0.00;0.00;;;;;;;;;;5019416;28;20046;-89
2022/09/03 04:35:02;;;;;;;0.00;0.00;;;;;;;;;;5016047;28;20042;-90
2022/09/03 04:37:28;;;;;;;0.00;0.00;;;;;;;;;;5013959;28;20046;-89
2022/09/03 04:39:55;;;;;;;0.00;0.00;;;;;;;;;;5015715;28;20060;-90
2022/09/03 04:42:21;;;;;;;0.00;0.00;;;;;;;;;;5014939;28;20167;-87
2022/09/03 04:44:46;;;;;;;0.00;0.00;;;;;;;;;;5014388;28;20078;-86
2022/09/03 04:47:14;;;;;;;0.00;0.00;;;;;;;;;;5014288;28;20038;-89
2022/09/03 04:49:40;;;;;;;0.00;0.00;;;;;;;;;;5014485;28;20176;-91
2022/09/03 04:52:06;;;;;;;0.00;0.00;;;;;;;;;;5014954;28;20120;-89
2022/09/03 04:54:32;;;;;;;0.00;0.00;;;;;;;;;;5013845;28;20099;-88
2022/09/03 04:56:58;;;;;;;0.00;0.00;;;;;;;;;;5014910;28;20045;-86
2022/09/03 04:59:24;;;;;;;0.00;0.00;;;;;;;;;;5013954;28;20044;-84
2022/09/03 05:01:51;;;;;;;0.00;0.00;;;;;;;;;;5014641;28;20481;-87
2022/09/03 05:04:18;;;;;;;0.00;0.00;;;;;;;;;;5014772;28;20052;-86
2022/09/03 05:06:44;;;;;;;0.00;0.00;;;;;;;;;;5014804;28;20109;-88
2022/09/03 05:09:10;;;;;;;0.00;0.00;;;;;;;;;;5014817;28;20038;-85
2022/09/03 05:11:36;;;;;;;0.00;0.00;;;;;;;;;;5014328;28;20504;-86
2022/09/03 05:14:04;;;;;;;0.00;0.00;;;;;;;;;;5014878;28;20049;-86
2022/09/03 05:16:30;;;;;;;0.00;0.00;;;;;;;;;;5014697;28;20121;-84
2022/09/03 05:19:00;;;;;;;0.00;0.00;;;;;;;;;;5013243;28;20077;-84
2022/09/03 05:21:27;;;;;;;0.00;0.00;;;;;;;;;;5013163;28;20080;-85
2022/09/03 05:23:53;;;;;;;0.00;0.00;;;;;;;;;;5013599;28;20558;-88
2022/09/03 05:26:20;;;;;;;0.00;0.00;;;;;;;;;;5012842;28;20402;-87
2022/09/03 05:28:46;;;;;;;0.00;0.00;;;;;;;;;;5012959;28;20038;-85
2022/09/03 05:31:15;;;;;;;0.00;0.00;;;;;;;;;;5014180;28;20042;-87
2022/09/03 05:33:43;;;;;;;0.00;0.00;;;;;;;;;;5014199;28;20053;-87
2022/09/03 05:36:10;;;;;;;0.00;0.00;;;;;;;;;;5013884;28;20512;-85
2022/09/03 05:38:36;;;;;;;0.00;0.00;;;;;;;;;;5014105;28;20046;-86
2022/09/03 05:41:03;;;;;;;0.00;0.00;;;;;;;;;;5013487;28;20068;-83
2022/09/03 05:43:30;;;;;;;0.00;0.00;;;;;;;;;;4996510;28;20397;-84
2022/09/03 05:46:17;;;;;;;0.00;0.00;;;;;;;;;;5014107;28;20038;-86
2022/09/03 05:48:43;;;;;;;0.00;0.00;;;;;;;;;;5014194;28;20042;-84
2022/09/03 05:51:10;;;;;;;0.00;0.00;;;;;;;;;;5013549;28;20042;-84
2022/09/03 05:53:37;;;;;;;0.00;0.00;;;;;;;;;;5014183;28;20121;-86
2022/09/03 05:56:05;;;;;;;0.00;0.00;;;;;;;;;;5012352;28;20397;-84
2022/09/03 05:58:31;;;;;;;0.00;0.00;;;;;;;;;;5012471;28;20042;-84
2022/09/03 06:00:58;;;;;;;0.00;0.00;;;;;;;;;;5013886;28;20037;-84
2022/09/03 06:03:24;;;;;;;0.00;0.00;;;;;;;;;;5013373;28;20551;-85
2022/09/03 06:05:51;;;;;;;0.00;0.00;;;;;;;;;;5013765;28;20046;-85
2022/09/03 06:08:17;;;;;;;0.00;0.00;;;;;;;;;;5013329;28;20121;-85
2022/09/03 06:10:43;;;;;;;0.00;0.00;;;;;;;;;;5012267;28;20069;-85
2022/09/03 06:13:09;;;;;;;0.00;0.00;;;;;;;;;;5011983;28;20069;-85
2022/09/03 06:15:35;;;;;;;0.00;0.00;;;;;;;;;;5012144;28;20057;-85
2022/09/03 06:18:01;;;;;;;0.00;0.00;;;;;;;;;;5012092;28;20037;-84
2022/09/03 06:20:27;;;;;;;0.00;0.00;;;;;;;;;;5013337;28;20048;-85
2022/09/03 06:22:54;;;;;;;0.00;0.00;;;;;;;;;;5012841;28;20093;-85
2022/09/03 06:25:20;;;;;;;0.00;0.00;;;;;;;;;;5013478;28;20058;-85
2022/09/03 06:27:46;;;;;;;0.00;0.00;;;;;;;;;;5011724;28;20038;-84
2022/09/03 06:30:12;;;;;;;0.00;0.00;;;;;;;;;;5013316;28;20034;-84
2022/09/03 06:32:51;;;;;;;0.00;0.00;;;;;;;;;;5013089;28;20416;-84
2022/09/03 06:35:17;;;;;;;0.00;0.00;;;;;;;;;;5011271;28;20049;-84
2022/09/03 06:37:43;;;;;;;0.00;0.00;;;;;;;;;;5013227;28;20042;-83
2022/09/03 06:40:12;;;;;;;0.00;0.00;;;;;;;;;;5013397;28;20045;-85
2022/09/03 06:42:41;;;;;;;0.00;0.00;;;;;;;;;;5012942;28;20042;-84
2022/09/03 06:45:10;;;;;;;0.00;0.00;;;;;;;;;;5011753;28;20133;-85
2022/09/03 06:47:36;;;;;;;0.00;0.00;;;;;;;;;;5011578;28;20048;-84
2022/09/03 06:50:02;;;;;;;0.00;0.00;;;;;;;;;;5012967;28;20041;-84
2022/09/03 06:52:28;;;;;;;0.00;0.00;;;;;;;;;;5011440;28;20126;-85
2022/09/03 06:54:54;;;;;;;0.00;0.00;;;;;;;;;;5011724;28;20553;-85
2022/09/03 06:57:20;;;;;;;0.00;0.00;;;;;;;;;;5012994;28;20053;-85
2022/09/03 06:59:48;;;;;;;0.00;0.00;;;;;;;;;;5013120;28;20038;-85
2022/09/03 07:02:14;;;;;;;0.00;0.00;;;;;;;;;;5011424;28;20042;-86
2022/09/03 07:04:40;;;;;;;0.00;0.00;;;;;;;;;;5012859;28;20119;-84
2022/09/03 07:07:12;;;;;;;0.00;0.00;;;;;;;;;;5012919;28;20048;-85
2022/09/03 07:09:37;;;;;;;0.00;0.00;;;;;;;;;;5011645;28;20172;-84
2022/09/03 07:12:04;;;;;;;0.00;0.00;;;;;;;;;;5011576;28;20132;-84
2022/09/03 07:14:30;;;;;;;0.00;0.00;;;;;;;;;;5011531;28;20045;-85
2022/09/03 07:16:56;;;;;;;0.00;0.00;;;;;;;;;;5012910;28;20034;-84
2022/09/03 07:19:21;;;;;;;0.00;0.00;;;;;;;;;;5011484;28;20176;-84
2022/09/03 07:21:47;;;;;;;0.00;0.00;;;;;;;;;;5012943;28;20033;-86
2022/09/03 07:24:14;;;;;;;0.00;0.00;;;;;;;;;;5011194;28;20412;-84
2022/09/03 07:26:43;;;;;;;0.00;0.00;;;;;;;;;;5010312;28;20064;-85
2022/09/03 07:29:10;;;;;;;0.00;0.00;;;;;;;;;;5011285;28;20042;-85
2022/09/03 07:31:40;;;;;;;0.00;0.00;;;;;;;;;;5012823;28;20042;-84
2022/09/03 07:34:07;;;;;;;0.00;0.00;;;;;;;;;;5012676;28;20458;-84
2022/09/03 07:36:41;;;;;;;0.00;0.00;;;;;;;;;;5011300;28;20107;-83
2022/09/03 07:39:08;;;;;;;0.00;0.00;;;;;;;;;;5011533;28;20052;-84
2022/09/03 07:41:34;;;;;;;0.00;0.00;;;;;;;;;;5012578;28;20049;-83
2022/09/03 07:44:04;;;;;;;0.00;0.00;;;;;;;;;;5012417;28;20100;-83
2022/09/03 07:46:30;;;;;;;0.00;0.00;;;;;;;;;;5013545;28;20178;-84
2022/09/03 07:48:57;;;;;;;0.00;0.00;;;;;;;;;;5014825;28;20069;-85
2022/09/03 07:51:28;;;;;;;0.00;0.00;;;;;;;;;;5015224;28;20030;-84
2022/09/03 07:53:56;;;;;;;0.00;0.00;;;;;;;;;;5014617;28;20405;-84
2022/09/03 07:56:22;;;;;;;0.00;0.00;;;;;;;;;;5016236;28;20084;-85
2022/09/03 07:58:48;;;;;;;0.00;0.00;;;;;;;;;;5014740;28;20038;-85
2022/09/03 08:01:15;;;;;;;0.00;0.00;;;;;;;;;;4998254;28;20045;-85
2022/09/03 08:03:45;;;;;;;0.00;0.00;;;;;;;;;;5014147;28;20073;-85
2022/09/03 08:06:12;;;;;;;0.00;0.00;;;;;;;;;;5013126;28;20046;-85
2022/09/03 08:08:39;;;;;;;0.00;0.00;;;;;;;;;;5014186;28;20563;-85
2022/09/03 08:11:12;;;;;;;0.00;0.00;;;;;;;;;;5015999;28;20045;-84
2022/09/03 08:13:39;;;;;;;0.00;0.00;;;;;;;;;;5015794;28;20161;-83
2022/09/03 08:16:06;;;;;;;0.00;0.00;;;;;;;;;;5015765;28;20057;-84
2022/09/03 08:18:36;;;;;;;0.00;0.00;;;;;;;;;;5015597;28;20389;-84
2022/09/03 08:21:02;;;;;;;0.00;0.00;;;;;;;;;;5015641;28;20049;-85
2022/09/03 08:23:28;;;;;;;0.00;0.00;;;;;;;;;;5014122;28;20061;-84
2022/09/03 08:25:59;;;;;;;0.00;0.00;;;;;;;;;;5015640;28;20449;-84
2022/09/03 08:28:25;;;;;;;0.13;0.00;;;;;;;;;;5015400;28;20065;-85
2022/09/03 08:30:50;;;;;;;0.00;0.00;;;;;;;;;;5014164;28;20042;-84
2022/09/03 08:33:35;;;;;;;0.00;0.00;;;;;;;;;;5015115;28;20065;-86
2022/09/03 08:36:03;;;;;;;0.00;0.00;;;;;;;;;;5014466;28;20394;-85
2022/09/03 08:38:30;;;;;;;0.00;0.00;;;;;;;;;;5014173;28;20077;-85
2022/09/03 08:41:02;;;;;;;0.00;0.00;;;;;;;;;;5014294;28;20174;-86
2022/09/03 08:43:29;;;;;;;0.00;0.00;;;;;;;;;;5013685;28;20046;-86
2022/09/03 08:45:58;;;;;;;0.00;0.00;;;;;;;;;;5015046;28;20081;-85
2022/09/03 08:48:25;;;;;;;0.00;0.00;;;;;;;;;;4997413;28;20049;-84
2022/09/03 08:50:54;;;;;;;0.00;0.00;;;;;;;;;;5013998;28;20042;-85
2022/09/03 08:53:27;;;;;;;0.00;0.00;;;;;;;;;;5013803;28;20045;-84
2022/09/03 08:55:59;;;;;;;0.00;0.00;;;;;;;;;;5015251;28;20038;-84
2022/09/03 08:58:26;;;;;;;0.00;0.00;;;;;;;;;;5012461;28;20330;-85
2022/09/03 09:01:00;;;;;;;0.00;0.00;;;;;;;;;;5014723;28;20491;-85
2022/09/03 09:03:26;;;;;;;0.00;0.00;;;;;;;;;;5013547;28;20096;-84
2022/09/03 09:06:11;;;;;;;0.00;0.00;;;;;;;;;;4997161;28;20509;-85
2022/09/03 09:08:37;;;;;;;0.00;0.00;;;;;;;;;;5014629;28;20489;-86
2022/09/03 09:11:03;;;;;;;0.00;0.00;;;;;;;;;;5014418;28;20049;-85
2022/09/03 09:13:42;;;;;;;0.05;0.00;;;;;;;;;;5013135;28;20129;-84
2022/09/03 09:16:14;;;;;;;0.00;0.00;;;;;;;;;;5014766;28;20111;-87
2022/09/03 09:18:40;;;;;;;0.00;0.00;;;;;;;;;;5012854;28;20061;-86
2022/09/03 09:21:21;;;;;;;0.00;0.00;;;;;;;;;;4996988;28;20046;-86
2022/09/03 09:23:48;;;;;;;0.00;0.00;;;;;;;;;;5012724;28;20057;-86
2022/09/03 09:26:16;;;;;;;0.00;0.00;;;;;;;;;;5014578;28;20045;-85
2022/09/03 09:28:43;;;;;;;0.00;0.00;;;;;;;;;;5013263;28;20053;-86
2022/09/03 09:31:14;;;;;;;0.00;0.00;;;;;;;;;;5014356;28;20041;-85
2022/09/03 09:33:40;;;;;;;0.00;0.00;;;;;;;;;;5014189;28;20045;-85
2022/09/03 09:36:08;;;;;;;0.00;0.00;;;;;;;;;;5014366;28;20116;-85
2022/09/03 09:38:38;;;;;;;0.00;0.00;;;;;;;;;;5014216;28;20126;-85
2022/09/03 09:41:14;;;;;;;0.00;0.00;;;;;;;;;;5014263;28;20047;-85
2022/09/03 09:43:41;;;;;;;0.00;0.00;;;;;;;;;;5014012;28;20073;-86
2022/09/03 09:46:11;;;;;;;0.00;0.00;;;;;;;;;;5014019;28;20107;-85
2022/09/03 09:48:39;;;;;;;0.00;0.00;;;;;;;;;;5012428;28;20042;-85
2022/09/03 09:51:10;;;;;;;0.00;0.00;;;;;;;;;;5013080;28;20042;-86
2022/09/03 09:53:36;;;;;;;0.00;0.00;;;;;;;;;;5013781;28;20113;-86
2022/09/03 09:56:02;;;;;;;0.00;0.00;;;;;;;;;;5013730;28;20442;-85
2022/09/03 09:58:32;;;;;;;0.00;0.00;;;;;;;;;;5012802;28;20041;-85
2022/09/03 10:01:02;;;;;;;0.00;0.00;;;;;;;;;;5012701;28;20048;-86
2022/09/03 10:03:29;;;;;;;0.00;0.00;;;;;;;;;;5012399;28;20478;-85
2022/09/03 10:06:52;;;;;;;0.00;0.00;;;;;;;;;;5012168;28;20049;-85
2022/09/03 10:08:49;;;;;;;0.00;0.00;;;;;;;;;;5012260;28;20436;-85
2022/09/03 10:11:16;;;;;;;0.00;0.00;;;;;;;;;;5012322;28;20077;-85
2022/09/03 10:13:44;;;;;;;0.00;0.00;;;;;;;;;;5013505;28;20045;-85
2022/09/03 10:16:19;;;;;;;0.00;0.00;;;;;;;;;;5012299;28;20050;-85
2022/09/03 10:18:51;;;;;;;0.00;0.00;;;;;;;;;;5013572;28;20046;-86
2022/09/03 10:21:24;;;;;;;0.00;0.00;;;;;;;;;;5012159;28;20125;-86
2022/09/03 10:23:58;;;;;;;0.00;0.00;;;;;;;;;;5012019;28;20089;-86
2022/09/03 10:26:30;;;;;;;0.00;0.00;;;;;;;;;;5012077;28;20038;-84
2022/09/03 10:28:58;;;;;;;0.00;0.00;;;;;;;;;;5013553;28;20033;-86
2022/09/03 10:31:35;;;;;;;0.00;0.00;;;;;;;;;;5013482;28;20040;-85
2022/09/03 10:34:20;;;;;;;0.00;0.00;;;;;;;;;;5011899;28;20061;-85
2022/09/03 10:37:02;;;;;;;0.00;0.00;;;;;;;;;;5013507;28;20037;-85
2022/09/03 10:39:34;;;;;;;0.00;0.00;;;;;;;;;;5013369;28;20135;-85
2022/09/03 10:42:27;;;;;;;0.10;0.10;;;;;;;;;;5013283;28;20041;-85
2022/09/03 10:45:16;;;;;;;0.00;0.00;;;;;;;;;;4982413;28;20485;-85
2022/09/03 10:47:55;;;;;;;0.00;0.00;;;;;;;;;;5013310;28;20050;-86
2022/09/03 10:50:25;;;;;;;0.00;0.00;;;;;;;;;;5013215;28;20057;-86
2022/09/03 10:53:04;;;;;;;0.00;0.00;;;;;;;;;;5011935;28;20037;-85
2022/09/03 10:55:43;;;;;;;0.00;0.00;;;;;;;;;;5013054;28;20100;-85
2022/09/03 10:58:12;;;;;;;0.00;0.00;;;;;;;;;;5013256;28;20053;-85
2022/09/03 11:00:40;;;;;;;0.00;0.00;;;;;;;;;;5012669;28;20527;-85
2022/09/03 11:03:19;;;;;;;0.00;0.00;;;;;;;;;;5011793;28;20339;-86
2022/09/03 11:05:51;;;;;;;0.10;0.05;;;;;;;;;;5011298;28;20125;-85
2022/09/03 11:08:35;;;;;;;0.00;0.00;;;;;;;;;;5011946;28;20073;-86
2022/09/03 11:11:08;;;;;;;0.00;0.00;;;;;;;;;;5011698;28;20391;-85
2022/09/03 11:13:39;;;;;;;0.00;0.00;;;;;;;;;;5012871;28;20418;-86
2022/09/03 11:16:11;;;;;;;0.00;0.00;;;;;;;;;;5011423;28;20046;-86
2022/09/03 11:18:46;;;;;;;0.00;0.00;;;;;;;;;;5013107;28;20149;-85
2022/09/03 11:21:12;;;;;;;;;;;;;;;;;;5014972;28;20596;-84
2022/09/03 11:23:41;;;;;;;0.00;0.00;;;;;;;;;;5016669;28;19976;-88
2022/09/03 11:26:11;;;;;;;0.00;0.00;;;;;;;;;;5015004;28;20056;-87
2022/09/03 11:28:37;;;;;;;0.00;0.00;;;;;;;;;;5016595;28;20489;-84
2022/09/03 11:31:12;;;;;;;0.00;0.00;;;;;;;;;;5015135;28;20046;-83
2022/09/03 11:33:45;;;;;;;0.00;0.00;;;;;;;;;;5016871;28;20125;-84
2022/09/03 11:36:12;;;;;;;0.00;0.00;;;;;;;;;;5016542;28;20041;-83
2022/09/03 11:38:38;;;;;;;0.00;0.00;;;;;;;;;;5016702;28;20425;-84
2022/09/03 11:41:13;;;;;;;0.00;0.00;;;;;;;;;;5014851;28;20088;-84
2022/09/03 11:43:39;;;;;;;0.00;0.00;;;;;;;;;;5015424;28;20081;-84
2022/09/03 11:46:05;;;;;;;0.00;0.00;;;;;;;;;;5016298;28;20124;-83
2022/09/03 11:48:37;;;;;;;0.00;0.00;;;;;;;;;;5016418;28;20034;-82
2022/09/03 11:51:04;;;;;;;0.00;0.00;;;;;;;;;;5016211;28;20045;-84
2022/09/03 11:53:34;;;;;;;0.00;0.00;;;;;;;;;;5014849;28;20073;-83
2022/09/03 11:56:13;;;;;;;0.00;0.00;;;;;;;;;;5014602;28;20053;-82
2022/09/03 11:58:41;;;;;;;0.00;0.00;;;;;;;;;;5015224;28;20366;-84
2022/09/03 12:01:12;;;;;;;0.00;0.00;;;;;;;;;;5015837;28;20038;-82
2022/09/03 12:04:14;;;;;;;0.00;0.00;;;;;;;;;;5015002;28;20113;-83
2022/09/03 12:06:55;;;;;;;0.00;0.00;;;;;;;;;;4939150;29;20284;-83
2022/09/03 12:09:21;;;;;;;0.00;0.00;;;;;;;;;;5007650;28;20054;-83
2022/09/03 12:12:07;;;;;;;0.00;0.00;;;;;;;;;;5015519;28;20437;-82
2022/09/03 12:14:33;;;;;;;;;;;;;;;;;;5014485;28;20378;-83
2022/09/03 12:17:05;;;;;;;0.00;0.00;;;;;;;;;;5015686;28;19922;-83
2022/09/03 12:19:53;;;;;;;0.00;0.00;;;;;;;;;;5014712;28;20077;-84
2022/09/03 12:22:21;;;;;;;0.00;0.00;;;;;;;;;;5013989;28;20054;-83
2022/09/03 12:24:47;;;;;;;0.00;0.00;;;;;;;;;;5014341;28;20046;-83
2022/09/03 12:27:21;;;;;;;0.00;0.00;;;;;;;;;;4997740;28;20448;-83
2022/09/03 12:30:00;;;;;;;0.00;0.00;;;;;;;;;;5015698;28;20045;-83
2022/09/03 12:32:35;;;;;;;0.00;0.00;;;;;;;;;;5013921;28;20101;-84
2022/09/03 12:35:18;;;;;;;0.00;0.00;;;;;;;;;;5014523;28;20042;-84
2022/09/03 12:37:44;;;;;;;0.00;0.00;;;;;;;;;;5015642;28;20046;-82
2022/09/03 12:40:17;;;;;;;0.00;0.00;;;;;;;;;;5015298;28;20073;-83
2022/09/03 12:42:43;;;;;;;0.00;0.00;;;;;;;;;;5015296;28;20049;-82
2022/09/03 12:45:14;;;;;;;0.00;0.00;;;;;;;;;;4997765;28;20042;-82
2022/09/03 12:47:40;;;;;;;0.00;0.00;;;;;;;;;;5015284;28;20048;-84
2022/09/03 12:50:08;;;;;;;0.00;0.00;;;;;;;;;;5013885;28;20041;-83
2022/09/03 12:52:46;;;;;;;0.00;0.00;;;;;;;;;;5013729;28;20046;-83
2022/09/03 12:55:21;;;;;;;0.00;0.00;;;;;;;;;;5015047;28;20481;-84
2022/09/03 12:57:50;;;;;;;0.00;0.00;;;;;;;;;;5015283;28;20065;-83
2022/09/03 13:00:17;;;;;;;0.00;0.00;;;;;;;;;;5014864;28;20450;-84
2022/09/03 13:02:51;;;;;;;0.00;0.00;;;;;;;;;;5013359;28;20091;-84
2022/09/03 13:05:20;;;;;;;0.00;0.00;;;;;;;;;;5013512;28;20052;-82
2022/09/03 13:07:50;;;;;;;0.00;0.00;;;;;;;;;;5014818;28;20131;-83
2022/09/03 13:10:24;;;;;;;0.00;0.00;;;;;;;;;;5013651;28;20120;-83
2022/09/03 13:12:50;;;;;;;0.00;0.00;;;;;;;;;;5014726;28;20124;-83
2022/09/03 13:15:22;;;;;;;0.00;0.00;;;;;;;;;;5013586;28;20701;-84
2022/09/03 13:18:08;;;;;;;0.00;0.00;;;;;;;;;;5014643;28;20073;-83
2022/09/03 13:20:51;;;;;;;0.00;0.00;;;;;;;;;;5014243;28;20413;-83
2022/09/03 13:23:33;;;;;;;0.00;0.00;;;;;;;;;;5013045;28;20089;-84
2022/09/03 13:26:09;;;;;;;0.00;0.00;;;;;;;;;;5014183;28;20054;-83
2022/09/03 13:28:44;;;;;;;0.00;0.00;;;;;;;;;;5013533;28;20041;-84
2022/09/03 13:31:21;;;;;;;0.00;0.00;;;;;;;;;;5014101;28;20042;-83
2022/09/03 13:33:51;;;;;;;0.00;0.00;;;;;;;;;;5013502;28;20481;-83
2022/09/03 13:36:19;;;;;;;0.00;0.00;;;;;;;;;;5012859;28;20069;-83
2022/09/03 13:38:45;;;;;;;0.00;0.00;;;;;;;;;;5013176;28;20494;-83
2022/09/03 13:41:18;;;;;;;0.00;0.00;;;;;;;;;;5012893;28;20046;-83
2022/09/03 13:44:01;;;;;;;0.00;0.00;;;;;;;;;;5012642;28;20049;-83
2022/09/03 13:46:39;;;;;;;0.00;0.00;;;;;;;;;;5012962;28;20042;-84
2022/09/03 13:52:02;;;;;;;0.00;0.00;;;;;;;;;;5013873;28;20050;-84
2022/09/03 13:54:35;;;;;;;0.00;0.00;;;;;;;;;;5012643;28;20046;-83
2022/09/03 13:57:06;;;;;;;0.00;0.00;;;;;;;;;;5012333;28;20041;-83
2022/09/03 13:59:52;;;;;;;0.00;0.00;;;;;;;;;;5013871;28;20034;-87
2022/09/03 14:02:27;;;;;;;0.00;0.00;;;;;;;;;;5013807;28;20041;-83
2022/09/03 14:05:04;;;;;;;0.00;0.00;;;;;;;;;;4996292;28;20054;-83
2022/09/03 14:07:33;;;;;;;0.00;0.00;;;;;;;;;;5010893;28;20398;-84
2022/09/03 14:10:18;;;;;;;0.00;0.00;;;;;;;;;;4996267;28;20120;-83
2022/09/03 14:12:48;;;;;;;0.00;0.00;;;;;;;;;;5013361;28;20456;-82
2022/09/03 14:15:14;;;;;;;0.00;0.00;;;;;;;;;;5013491;28;20045;-82
2022/09/03 14:17:40;;;;;;;0.00;0.00;;;;;;;;;;5012039;28;20045;-83
2022/09/03 14:20:19;;;;;;;0.00;0.00;;;;;;;;;;5012184;28;20482;-84
2022/09/03 14:22:48;;;;;;;0.00;0.00;;;;;;;;;;5011909;28;20164;-83
2022/09/03 14:25:19;;;;;;;0.00;0.00;;;;;;;;;;5013681;28;20072;-83
2022/09/03 14:27:45;;;;;;;0.00;0.00;;;;;;;;;;5013986;28;20092;-83
2022/09/03 14:30:33;;;;;;;0.00;0.00;;;;;;;;;;5012109;28;20046;-83
2022/09/03 14:33:20;;;;;;;0.00;0.00;;;;;;;;;;5013299;28;20113;-83
2022/09/03 14:35:58;;;;;;;0.00;0.00;;;;;;;;;;5012121;28;20057;-84
2022/09/03 14:38:36;;;;;;;0.00;0.00;;;;;;;;;;5012413;28;20104;-82
2022/09/03 14:41:08;;;;;;;0.00;0.00;;;;;;;;;;5013400;28;20092;-83
2022/09/03 14:43:46;;;;;;;0.00;0.00;;;;;;;;;;5011806;28;20065;-83
2022/09/03 14:46:17;;;;;;;0.00;0.00;;;;;;;;;;5011919;28;20050;-83
2022/09/03 14:49:00;;;;;;;0.00;0.00;;;;;;;;;;5013212;28;20046;-83
2022/09/03 14:51:47;;;;;;;0.00;0.00;;;;;;;;;;5013286;28;20041;-82
2022/09/03 14:54:30;;;;;;;0.00;0.00;;;;;;;;;;4995637;28;20097;-83
2022/09/03 14:57:11;;;;;;;0.00;0.00;;;;;;;;;;5012517;28;20053;-83
2022/09/03 14:59:49;;;;;;;0.00;0.00;;;;;;;;;;5012016;28;20537;-83
2022/09/03 15:02:15;;;;;;;0.00;0.00;;;;;;;;;;5012593;28;20504;-82
2022/09/03 15:04:56;;;;;;;0.00;0.00;;;;;;;;;;5011639;28;20041;-82
2022/09/03 15:07:41;;;;;;;0.00;0.00;;;;;;;;;;5011669;28;20045;-82
2022/09/03 15:10:22;;;;;;;0.00;0.00;;;;;;;;;;5011669;28;20049;-83
2022/09/03 15:13:00;;;;;;;0.00;0.00;;;;;;;;;;5012804;28;20046;-82
2022/09/03 15:15:37;;;;;;;0.00;0.00;;;;;;;;;;5011564;28;20049;-84
2022/09/03 15:18:13;;;;;;;0.00;0.00;;;;;;;;;;5011463;28;20535;-84